Time;durP1;ratioP1;P1;durP2;ratioP2;P2;SDS_P1;SDS_P2;PMS_P1;PMS_P2;Temp;Humidity;BMP_temperature;BMP_pressure;BME280_temperature;BME280_humidity;BME280_pressure;Samples;Min_cycle;Max_cycle;Signal;HPM_P1;HPM_P2
2023/02/11 00:01:47;;;;;;;13.88;7.85;;;;;;;-5.20;59.77;96468.72;5121402;27;20558;-78
2023/02/11 00:04:12;;;;;;;11.48;7.32;;;;;;;-5.22;59.89;96462.81;5113256;27;20451;-78
2023/02/11 00:06:38;;;;;;;13.95;8.43;;;;;;;-5.19;59.51;96463.66;5130235;27;20031;-78
2023/02/11 00:09:03;;;;;;;14.45;7.55;;;;;;;-5.40;60.04;96464.41;5132331;27;20031;-78
2023/02/11 00:11:29;;;;;;;13.32;7.28;;;;;;;-5.32;59.68;96445.84;5093958;28;20038;-78
2023/02/11 00:13:55;;;;;;;15.60;8.43;;;;;;;-5.27;60.30;96467.84;5077758;28;20086;-78
2023/02/11 00:16:21;;;;;;;15.50;7.55;;;;;;;-5.25;59.79;96455.19;5094663;28;20019;-78
2023/02/11 00:18:46;;;;;;;14.52;7.53;;;;;;;-5.26;60.31;96454.34;5103820;27;20120;-78
2023/02/11 00:21:14;;;;;;;14.18;8.60;;;;;;;-5.30;60.38;96460.22;5112500;27;20463;-78
2023/02/11 00:23:39;;;;;;;14.45;7.57;;;;;;;-5.30;60.83;96455.16;5114887;27;20127;-78
2023/02/11 00:26:18;;;;;;;13.88;7.90;;;;;;;-5.23;60.99;96464.50;5110768;28;20050;-78
2023/02/11 00:28:43;;;;;;;12.68;7.15;;;;;;;-5.22;60.96;96457.72;5094556;28;20063;-78
2023/02/11 00:31:09;;;;;;;14.40;8.13;;;;;;;-5.42;60.69;96442.44;5128738;27;20073;-78
2023/02/11 00:33:35;;;;;;;12.57;7.68;;;;;;;-5.36;61.08;96454.28;5114705;27;20531;-78
2023/02/11 00:36:04;;;;;;;14.77;7.65;;;;;;;-5.48;60.46;96438.19;5098282;27;20027;-78
2023/02/11 00:38:30;;;;;;;28.55;11.93;;;;;;;-5.35;61.29;96463.56;5132425;27;20058;-78
2023/02/11 00:40:55;;;;;;;16.33;7.90;;;;;;;-5.35;60.69;96453.44;5131255;27;20424;-78
2023/02/11 00:43:20;;;;;;;10.38;6.72;;;;;;;-5.52;60.32;96431.41;5120073;27;20039;-78
2023/02/11 00:45:49;;;;;;;12.38;7.63;;;;;;;-5.47;60.43;96454.22;5120335;27;20023;-78
2023/02/11 00:48:14;;;;;;;10.98;6.78;;;;;;;-5.52;60.35;96466.84;5115215;27;20538;-78
2023/02/11 00:50:40;;;;;;;11.25;7.15;;;;;;;-5.42;60.75;96458.47;5130813;27;20084;-78
2023/02/11 00:53:05;;;;;;;12.43;7.07;;;;;;;-5.40;60.64;96461.03;5131400;27;20038;-78
2023/02/11 00:55:31;;;;;;;10.90;6.43;;;;;;;-5.42;60.43;96452.56;5130077;27;20027;-78
2023/02/11 00:57:57;;;;;;;12.35;6.40;;;;;;;-5.56;59.98;96428.84;5131141;27;20038;-78
2023/02/11 01:00:23;;;;;;;9.82;6.43;;;;;;;-5.39;59.70;96455.97;5130728;27;20029;-78
2023/02/11 01:02:48;;;;;;;9.90;5.53;;;;;;;-5.37;59.30;96445.84;5114228;27;20027;-78
2023/02/11 01:05:14;;;;;;;10.43;5.97;;;;;;;-5.40;59.39;96434.00;5128978;27;20042;-78
2023/02/11 01:07:39;;;;;;;10.50;5.85;;;;;;;-5.29;59.18;96446.72;5130543;27;20035;-78
2023/02/11 01:10:05;;;;;;;12.80;5.70;;;;;;;-5.46;59.86;96426.38;5113883;28;20035;-78
2023/02/11 01:12:30;;;;;;;10.18;6.28;;;;;;;-5.47;59.61;96437.34;5130113;27;20067;-78
2023/02/11 01:14:56;;;;;;;9.85;5.53;;;;;;;-5.38;59.64;96439.06;5131183;27;20023;-78
2023/02/11 01:17:21;;;;;;;10.20;5.20;;;;;;;-5.59;59.07;96442.34;5132161;27;20035;-78
2023/02/11 01:19:47;;;;;;;11.05;5.88;;;;;;;-5.67;59.35;96433.84;5130209;28;20545;-78
2023/02/11 01:22:12;;;;;;;11.55;5.63;;;;;;;-5.56;59.19;96441.53;5115704;28;20516;-78
2023/02/11 01:24:38;;;;;;;8.57;5.13;;;;;;;-5.65;58.87;96420.38;5131438;28;20076;-78
2023/02/11 01:27:03;;;;;;;11.20;6.05;;;;;;;-5.64;57.98;96408.53;5130883;27;20095;-78
2023/02/11 01:29:29;;;;;;;13.95;6.65;;;;;;;-5.63;58.60;96428.84;5124360;27;20031;-78
2023/02/11 01:31:54;;;;;;;10.70;5.35;;;;;;;-5.65;58.55;96429.66;5093055;28;20052;-78
2023/02/11 01:34:20;;;;;;;11.02;5.63;;;;;;;-5.62;58.99;96429.66;5110771;28;20042;-78
2023/02/11 01:36:45;;;;;;;8.60;5.72;;;;;;;-5.69;58.62;96426.22;5102441;28;20100;-78
2023/02/11 01:39:10;;;;;;;9.00;5.38;;;;;;;-5.66;58.02;96433.00;5127539;28;20544;-78
2023/02/11 01:41:36;;;;;;;9.60;5.05;;;;;;;-5.74;58.40;96420.31;5125002;28;20507;-78
2023/02/11 01:44:28;;;;;;;10.82;5.68;;;;;;;-5.91;58.93;96437.06;5111483;28;20031;-78
2023/02/11 01:46:53;;;;;;;7.22;5.22;;;;;;;-5.86;58.62;96427.81;5077646;28;20084;-78
2023/02/11 01:49:22;;;;;;;13.00;5.95;;;;;;;-5.76;58.94;96426.22;5078981;28;20035;-78
2023/02/11 01:52:00;;;;;;;8.98;5.13;;;;;;;-5.84;59.17;96431.22;5098834;28;20077;-78
2023/02/11 01:57:22;;;;;;;9.95;5.05;;;;;;;-5.95;59.25;96426.13;5109418;28;20038;-78
2023/02/11 01:59:58;;;;;;;8.38;5.40;;;;;;;-5.97;59.20;96424.41;5115823;28;20036;-78
2023/02/11 02:02:54;;;;;;;9.65;5.38;;;;;;;-6.09;59.57;96413.34;5108607;28;20507;-78
2023/02/11 02:05:45;;;;;;;9.35;5.35;;;;;;;-6.08;59.81;96424.31;5114787;28;20117;-77
2023/02/11 02:08:12;;;;;;;11.13;6.38;;;;;;;-5.95;59.22;96421.06;5101513;28;20047;-78
2023/02/11 02:10:40;;;;;;;9.02;5.50;;;;;;;-6.01;59.48;96420.16;5111571;28;20039;-78
2023/02/11 02:13:06;;;;;;;9.15;5.65;;;;;;;-6.17;59.61;96394.75;5093305;28;20050;-78
2023/02/11 02:15:39;;;;;;;12.15;6.55;;;;;;;-6.19;60.03;96413.28;5109824;28;20023;-77
2023/02/11 02:18:19;;;;;;;9.07;5.70;;;;;;;-6.00;59.96;96422.69;5087293;28;20043;-78
2023/02/11 02:20:57;;;;;;;10.02;5.88;;;;;;;-5.98;59.96;96425.25;5122055;28;20034;-78
2023/02/11 02:23:25;;;;;;;9.15;5.93;;;;;;;-6.07;59.52;96431.09;5130540;27;20355;-78
2023/02/11 02:26:18;;;;;;;10.43;5.63;;;;;;;-6.14;59.81;96425.13;5134486;27;20027;-78
2023/02/11 02:29:12;;;;;;;10.57;5.88;;;;;;;-6.16;59.95;96423.41;5118718;27;20035;-78
2023/02/11 02:31:52;;;;;;;12.82;5.60;;;;;;;-6.14;60.03;96419.22;5113428;28;20432;-78
2023/02/11 02:34:41;;;;;;;8.85;5.10;;;;;;;-6.19;59.31;96425.94;5115328;28;20028;-77
2023/02/11 02:37:15;;;;;;;7.50;5.05;;;;;;;-6.17;59.45;96424.25;5133692;27;20109;-78
2023/02/11 02:39:40;;;;;;;14.43;5.63;;;;;;;-6.23;59.57;96411.56;5117623;27;20126;-78
2023/02/11 02:42:06;;;;;;;7.75;5.40;;;;;;;-6.15;60.01;96427.66;5116850;27;20476;-78
2023/02/11 02:44:31;;;;;;;11.20;5.82;;;;;;;-6.27;59.83;96420.78;5098113;27;20038;-78
2023/02/11 02:46:57;;;;;;;9.45;5.25;;;;;;;-6.40;60.21;96417.34;5116684;27;20027;-78
2023/02/11 02:49:22;;;;;;;11.18;5.90;;;;;;;-6.28;60.16;96423.34;5116927;27;20035;-78
2023/02/11 02:52:17;;;;;;;9.80;5.28;;;;;;;-6.27;60.06;96428.38;5117447;27;20051;-78
2023/02/11 02:55:07;;;;;;;9.45;4.82;;;;;;;-6.35;60.20;96425.81;5111534;27;20563;-78
2023/02/11 02:57:54;;;;;;;7.75;4.93;;;;;;;-6.49;60.87;96422.31;5112948;28;20032;-78
2023/02/11 03:00:30;;;;;;;9.65;5.25;;;;;;;-6.54;61.14;96429.00;5114322;28;20550;-78
2023/02/11 03:03:14;;;;;;;10.65;5.75;;;;;;;-6.46;60.84;96431.59;5117291;27;20318;-78
2023/02/11 03:05:50;;;;;;;9.45;5.18;;;;;;;-6.40;60.73;96432.50;5125849;27;20447;-78
2023/02/11 03:08:16;;;;;;;9.77;5.47;;;;;;;-6.44;60.96;96435.84;5116606;27;20035;-78
2023/02/11 03:10:43;;;;;;;14.25;7.15;;;;;;;-6.48;60.56;96418.94;5131541;27;20023;-78
2023/02/11 03:13:09;;;;;;;11.20;6.68;;;;;;;-6.73;60.88;96415.34;5110225;27;20031;-78
2023/02/11 03:15:37;;;;;;;11.57;6.57;;;;;;;-6.63;60.99;96424.72;5111978;27;20042;-77
2023/02/11 03:18:03;;;;;;;10.98;6.78;;;;;;;-6.67;61.03;96417.09;5112289;28;20058;-78
2023/02/11 03:20:29;;;;;;;9.25;5.95;;;;;;;-6.79;61.51;96413.59;5114834;27;20394;-78
2023/02/11 03:22:57;;;;;;;11.32;6.18;;;;;;;-6.78;61.35;96422.88;5099032;27;20035;-78
2023/02/11 03:25:27;;;;;;;15.20;6.97;;;;;;;-6.71;61.73;96431.38;5133182;27;20023;-78
2023/02/11 03:28:07;;;;;;;12.23;6.07;;;;;;;-6.75;61.29;96417.84;5115584;27;20031;-78
2023/02/11 03:30:47;;;;;;;8.85;5.28;;;;;;;-6.69;60.77;96416.22;5109297;27;20061;-78
2023/02/11 03:33:31;;;;;;;10.32;5.53;;;;;;;-6.78;60.54;96395.06;5116688;27;20059;-78
2023/02/11 03:36:03;;;;;;;9.35;5.57;;;;;;;-6.59;60.49;96425.59;5094221;28;20382;-78
2023/02/11 03:38:32;;;;;;;;;;;;;;;-6.68;60.38;96421.31;5095621;28;20420;-78
2023/02/11 03:40:58;;;;;;;7.88;4.80;;;;;;;-6.79;60.84;96417.81;5129011;27;19975;-78
2023/02/11 03:43:40;;;;;;;9.27;5.28;;;;;;;-6.85;60.82;96415.19;5103011;27;20031;-78
2023/02/11 03:46:06;;;;;;;7.88;4.47;;;;;;;-6.76;60.90;96423.75;5094789;28;20035;-78
2023/02/11 03:48:37;;;;;;;8.77;5.47;;;;;;;-6.86;61.32;96411.00;5115599;27;20031;-78
2023/02/11 03:51:04;;;;;;;8.05;5.43;;;;;;;-6.76;61.09;96422.91;5095555;28;20158;-78
2023/02/11 03:53:30;;;;;;;9.85;5.30;;;;;;;-6.75;61.14;96415.31;5112160;28;20038;-78
2023/02/11 03:55:56;;;;;;;10.10;4.97;;;;;;;-6.76;61.60;96411.09;5111819;28;20031;-78
2023/02/11 03:58:21;;;;;;;11.07;5.40;;;;;;;-6.62;60.60;96406.19;5131749;27;20035;-78
2023/02/11 04:00:47;;;;;;;9.95;5.85;;;;;;;-6.64;60.52;96410.38;5101089;28;20517;-78
2023/02/11 04:03:12;;;;;;;10.60;5.32;;;;;;;-6.84;60.85;96394.19;5094814;28;20057;-78
2023/02/11 04:05:38;;;;;;;10.27;5.47;;;;;;;-6.77;61.54;96401.84;5094738;28;20028;-78
2023/02/11 04:08:03;;;;;;;11.95;5.47;;;;;;;-6.72;60.57;96419.56;5114292;27;20027;-78
2023/02/11 04:10:29;;;;;;;10.38;6.00;;;;;;;-6.71;60.02;96400.19;5097176;27;20111;-77
2023/02/11 04:12:54;;;;;;;8.38;4.70;;;;;;;-6.69;59.63;96417.06;5131687;27;20035;-78
2023/02/11 04:15:20;;;;;;;13.13;5.18;;;;;;;-6.71;59.85;96410.28;5086442;27;20084;-78
2023/02/11 04:17:45;;;;;;;11.10;5.93;;;;;;;-6.75;60.20;96400.16;5132969;27;20092;-78
2023/02/11 04:20:11;;;;;;;13.60;6.35;;;;;;;-6.61;59.71;96423.03;5113708;27;20023;-78
2023/02/11 04:22:36;;;;;;;9.05;5.47;;;;;;;-6.59;60.38;96430.66;5094575;28;20034;-78
2023/02/11 04:25:03;;;;;;;10.48;5.28;;;;;;;-6.78;60.05;96409.41;5093643;28;20493;-78
2023/02/11 04:27:28;;;;;;;8.75;5.32;;;;;;;-6.76;59.85;96422.91;5111454;28;20103;-78
2023/02/11 04:29:54;;;;;;;8.52;5.13;;;;;;;-6.93;60.79;96409.25;5098961;27;21653;-78
2023/02/11 04:32:19;;;;;;;9.07;5.05;;;;;;;-6.83;60.71;96419.44;5115398;27;20046;-78
2023/02/11 04:34:45;;;;;;;10.10;5.43;;;;;;;-6.79;60.52;96412.75;5112554;27;20046;-78
2023/02/11 04:37:10;;;;;;;9.75;5.80;;;;;;;-6.87;60.66;96425.31;5111532;27;20413;-78
2023/02/11 04:39:36;;;;;;;12.18;6.25;;;;;;;-6.85;60.46;96415.19;5112166;27;20036;-78
2023/02/11 04:42:01;;;;;;;11.00;5.57;;;;;;;-6.86;60.55;96416.88;5111006;28;20470;-78
2023/02/11 04:44:26;;;;;;;9.73;5.88;;;;;;;-6.80;59.90;96411.91;5109828;27;20109;-78
2023/02/11 04:46:52;;;;;;;10.93;5.88;;;;;;;-6.95;59.93;96400.81;5101133;28;20477;-78
2023/02/11 04:49:18;;;;;;;10.15;5.70;;;;;;;-6.86;60.03;96411.84;5094289;28;20039;-78
2023/02/11 04:51:46;;;;;;;15.52;7.38;;;;;;;-6.99;60.93;96407.50;5126871;27;20095;-78
2023/02/11 04:54:11;;;;;;;11.73;6.07;;;;;;;-6.95;60.99;96400.81;5129616;27;20122;-78
2023/02/11 04:56:37;;;;;;;10.25;6.28;;;;;;;-7.12;60.71;96411.56;5120794;27;20453;-78
2023/02/11 04:59:02;;;;;;;14.68;6.88;;;;;;;-7.23;61.22;96410.59;5111047;28;20050;-78
2023/02/11 05:01:28;;;;;;;13.68;7.05;;;;;;;-7.09;60.43;96410.75;5110431;28;20149;-78
2023/02/11 05:03:53;;;;;;;13.90;6.88;;;;;;;-7.07;60.77;96406.59;5111373;28;20519;-78
2023/02/11 05:06:19;;;;;;;10.80;6.22;;;;;;;-7.26;60.83;96411.41;5112574;27;20432;-78
2023/02/11 05:08:44;;;;;;;12.10;6.70;;;;;;;-7.37;61.07;96380.13;5131405;27;20035;-78
2023/02/11 05:11:19;;;;;;;9.88;5.07;;;;;;;-7.15;60.58;96387.97;5096207;27;20031;-78
2023/02/11 05:13:44;;;;;;;8.38;5.25;;;;;;;-7.05;60.47;96399.84;5100923;27;20088;-78
2023/02/11 05:16:10;;;;;;;10.90;5.65;;;;;;;-7.19;60.35;96394.63;5114043;28;20455;-78
2023/02/11 05:18:39;;;;;;;9.75;5.80;;;;;;;-7.25;60.96;96403.00;5114200;28;20035;-78
2023/02/11 05:21:09;;;;;;;10.35;5.97;;;;;;;-7.14;60.50;96394.69;5096059;28;20035;-78
2023/02/11 05:23:35;;;;;;;9.55;5.30;;;;;;;-7.21;60.21;96384.53;5114079;28;20039;-78
2023/02/11 05:26:01;;;;;;;8.57;5.05;;;;;;;-7.15;59.44;96372.81;5112246;28;20435;-78
2023/02/11 05:28:26;;;;;;;10.60;5.32;;;;;;;-7.16;59.15;96388.78;5111648;28;20534;-78
2023/02/11 05:30:52;;;;;;;9.80;5.65;;;;;;;-7.36;59.41;96365.81;5093562;28;20168;-78
2023/02/11 05:33:17;;;;;;;7.00;4.60;;;;;;;-7.10;58.89;96383.78;5115706;28;20051;-78
2023/02/11 05:35:43;;;;;;;8.85;5.07;;;;;;;-7.43;59.45;96372.50;5131187;28;20413;-78
2023/02/11 05:38:08;;;;;;;9.10;4.53;;;;;;;-7.23;59.90;96398.81;5129898;28;20511;-78
2023/02/11 05:40:33;;;;;;;7.50;4.80;;;;;;;-7.14;59.76;96405.66;5117462;27;20098;-78
2023/02/11 05:42:59;;;;;;;9.88;5.25;;;;;;;-7.30;60.19;96397.06;5110105;28;20035;-78
2023/02/11 05:45:24;;;;;;;9.13;5.13;;;;;;;-7.21;60.11;96401.38;5097489;28;20020;-78
2023/02/11 05:47:50;;;;;;;9.85;5.63;;;;;;;-7.24;59.83;96394.59;5125272;28;20072;-78
2023/02/11 05:50:15;;;;;;;9.75;5.80;;;;;;;-7.32;59.85;96398.72;5130829;28;20534;-78
2023/02/11 05:52:41;;;;;;;8.07;4.65;;;;;;;-7.20;58.86;96381.16;5113985;28;20450;-77
2023/02/11 05:55:06;;;;;;;10.50;5.80;;;;;;;-7.13;59.24;96401.44;5113640;28;20023;-77
2023/02/11 05:57:32;;;;;;;16.05;7.35;;;;;;;-7.08;58.85;96405.72;5096820;28;20035;-77
2023/02/11 05:59:58;;;;;;;12.10;6.10;;;;;;;-7.13;58.70;96394.72;5122070;27;20412;-77
2023/02/11 06:02:23;;;;;;;11.95;6.72;;;;;;;-7.13;58.43;96381.22;5115941;27;20019;-77
2023/02/11 06:04:49;;;;;;;11.85;6.22;;;;;;;-7.14;58.89;96387.13;5116003;27;20027;-77
2023/02/11 06:07:14;;;;;;;11.93;6.68;;;;;;;-7.17;59.39;96387.94;5133757;27;20382;-77
2023/02/11 06:09:40;;;;;;;10.52;6.47;;;;;;;-6.98;59.39;96414.25;5133946;27;20466;-77
2023/02/11 06:12:05;;;;;;;21.10;11.95;;;;;;;-7.20;59.38;96418.22;5131723;27;20031;-77
2023/02/11 06:14:32;;;;;;;36.65;21.77;;;;;;;-7.22;59.78;96418.19;5091339;27;20501;-77
2023/02/11 06:16:58;;;;;;;32.78;20.48;;;;;;;-7.36;60.51;96414.66;5121622;27;20468;-77
2023/02/11 06:19:23;;;;;;;41.53;21.67;;;;;;;-7.45;60.42;96420.44;5114399;27;20059;-77
2023/02/11 06:21:49;;;;;;;23.10;15.50;;;;;;;-7.43;60.83;96428.03;5123435;27;20386;-77
2023/02/11 06:24:14;;;;;;;38.83;22.80;;;;;;;-7.52;60.79;96413.63;5100030;27;20042;-79
2023/02/11 06:26:40;;;;;;;29.35;17.50;;;;;;;-7.51;61.06;96417.84;5119649;27;20048;-79
2023/02/11 06:29:05;;;;;;;32.55;17.70;;;;;;;-7.33;60.55;96418.88;5115805;27;20035;-77
2023/02/11 06:31:31;;;;;;;34.13;18.90;;;;;;;-7.62;60.95;96416.84;5097760;27;20042;-77
2023/02/11 06:33:58;;;;;;;28.48;15.55;;;;;;;-7.44;60.91;96421.28;5124585;27;20027;-77
2023/02/11 06:36:23;;;;;;;25.65;15.73;;;;;;;-7.56;61.03;96400.94;5127936;27;20216;-79
2023/02/11 06:38:49;;;;;;;22.25;11.55;;;;;;;-7.57;61.27;96417.78;5112343;27;20027;-77
2023/02/11 06:41:15;;;;;;;25.27;14.57;;;;;;;-7.57;61.38;96406.84;5130218;27;20035;-77
2023/02/11 06:43:41;;;;;;;14.68;8.00;;;;;;;-7.58;62.44;96418.56;5112259;27;20130;-78
2023/02/11 06:46:06;;;;;;;17.13;9.65;;;;;;;-7.73;62.33;96396.53;5093537;27;20091;-80
2023/02/11 06:48:32;;;;;;;10.98;6.95;;;;;;;-7.56;61.92;96401.78;5110821;27;20420;-79
2023/02/11 06:51:01;;;;;;;10.85;6.63;;;;;;;-7.33;61.00;96429.00;5128386;27;20031;-83
2023/02/11 06:53:26;;;;;;;14.02;7.72;;;;;;;-7.47;61.38;96414.50;5128677;27;20095;-78
2023/02/11 06:55:52;;;;;;;14.98;8.85;;;;;;;-7.70;62.55;96414.22;5127964;27;20331;-78
2023/02/11 06:58:17;;;;;;;21.38;12.27;;;;;;;-7.50;62.26;96433.84;5123199;27;20039;-78
2023/02/11 07:00:43;;;;;;;21.40;12.23;;;;;;;-7.56;61.96;96413.56;5129449;27;20031;-78
2023/02/11 07:03:08;;;;;;;19.13;11.05;;;;;;;-7.52;62.39;96433.84;5129382;27;20035;-78
2023/02/11 07:05:33;;;;;;;24.48;10.50;;;;;;;-7.45;62.74;96427.16;5127987;27;20553;-78
2023/02/11 07:07:59;;;;;;;21.35;10.23;;;;;;;-7.47;62.56;96406.94;5128716;27;20478;-77
2023/02/11 07:10:25;;;;;;;19.00;9.70;;;;;;;-7.07;61.85;96432.69;5112545;27;20408;-77
2023/02/11 07:12:50;;;;;;;22.30;10.00;;;;;;;-5.84;60.15;96429.53;5114536;27;20473;-77
2023/02/11 07:15:15;;;;;;;16.65;9.70;;;;;;;-4.33;55.72;96412.31;5128464;27;20027;-77
2023/02/11 07:17:41;;;;;;;14.38;8.30;;;;;;;-4.11;54.58;96414.03;5134885;27;20057;-77
2023/02/11 07:20:07;;;;;;;15.30;7.50;;;;;;;-3.79;53.57;96407.22;5129823;27;20023;-77
2023/02/11 07:22:33;;;;;;;12.52;7.53;;;;;;;-3.74;53.15;96411.44;5112692;27;20031;-77
2023/02/11 07:24:59;;;;;;;14.43;8.00;;;;;;;-3.72;53.32;96388.59;5133145;27;20456;-77
2023/02/11 07:27:24;;;;;;;16.13;7.95;;;;;;;-2.75;51.92;96389.91;5113816;27;20038;-77
2023/02/11 07:29:50;;;;;;;11.85;7.88;;;;;;;-2.61;51.15;96386.44;5128440;27;20023;-77
2023/02/11 07:32:15;;;;;;;13.45;8.23;;;;;;;-2.68;51.96;96393.22;5111915;27;20059;-77
2023/02/11 07:34:41;;;;;;;12.15;7.20;;;;;;;-2.54;51.07;96398.25;5128843;27;20024;-78
2023/02/11 07:37:06;;;;;;;11.27;7.28;;;;;;;-1.19;49.20;96379.19;5128184;27;20035;-78
2023/02/11 07:39:31;;;;;;;12.77;8.35;;;;;;;-0.30;46.65;96366.03;5110881;27;20498;-78
2023/02/11 07:41:57;;;;;;;15.50;9.30;;;;;;;1.52;43.50;96383.91;5126050;27;20031;-77
2023/02/11 07:44:23;;;;;;;13.32;8.40;;;;;;;1.96;41.31;96362.38;5128399;27;20077;-78
2023/02/11 07:46:48;;;;;;;14.85;9.75;;;;;;;2.46;40.29;96362.81;5124322;27;20031;-77
2023/02/11 07:49:14;;;;;;;17.45;12.13;;;;;;;3.63;38.13;96368.91;5092965;27;20047;-78
2023/02/11 07:51:40;;;;;;;14.50;10.32;;;;;;;5.28;35.54;96367.59;5112121;27;20457;-78
2023/02/11 07:54:05;;;;;;;17.85;12.68;;;;;;;6.36;33.26;96364.22;5127497;27;20489;-78
2023/02/11 07:56:31;;;;;;;18.50;13.77;;;;;;;7.39;31.83;96368.34;5119395;27;20396;-78
2023/02/11 07:58:58;;;;;;;19.60;14.30;;;;;;;8.18;30.35;96355.13;5113411;27;20042;-78
2023/02/11 08:01:27;;;;;;;19.20;14.88;;;;;;;8.96;28.40;96348.63;5091748;28;20050;-78
2023/02/11 08:03:52;;;;;;;30.13;20.55;;;;;;;9.42;26.45;96346.22;5093727;28;20433;-78
2023/02/11 08:06:19;;;;;;;24.00;17.65;;;;;;;9.74;25.78;96347.03;5111101;28;20028;-78
2023/02/11 08:08:44;;;;;;;19.05;14.45;;;;;;;10.21;26.46;96322.75;5094662;28;20068;-78
2023/02/11 08:11:14;;;;;;;21.58;14.63;;;;;;;10.77;25.32;96348.97;5107634;27;20508;-79
2023/02/11 08:13:40;;;;;;;20.20;14.70;;;;;;;10.52;24.48;96341.78;5108403;27;20063;-78
2023/02/11 08:16:06;;;;;;;27.50;16.42;;;;;;;10.73;24.35;96340.53;5114331;27;20062;-79
2023/02/11 08:18:32;;;;;;;22.35;15.82;;;;;;;10.82;24.27;96333.13;5090549;28;20042;-79
2023/02/11 08:21:06;;;;;;;22.38;14.98;;;;;;;8.62;25.84;96334.00;5088754;27;20020;-79
2023/02/11 08:23:32;;;;;;;23.73;15.77;;;;;;;6.03;29.39;96341.47;5111271;27;20035;-79
2023/02/11 08:26:02;;;;;;;20.90;14.73;;;;;;;5.37;31.33;96344.03;5123608;27;20024;-79
2023/02/11 08:28:27;;;;;;;23.42;15.13;;;;;;;4.54;32.22;96323.91;5106485;27;20038;-79
2023/02/11 08:30:53;;;;;;;23.48;15.02;;;;;;;4.02;34.02;96357.38;5106976;27;20027;-80
2023/02/11 08:33:18;;;;;;;23.15;15.70;;;;;;;3.07;34.93;96359.44;5093251;27;20393;-80
2023/02/11 08:35:44;;;;;;;22.77;14.60;;;;;;;2.09;37.06;96357.78;5126336;27;20030;-78
2023/02/11 08:38:09;;;;;;;22.52;14.10;;;;;;;1.66;38.22;96348.56;5127811;27;20035;-79
2023/02/11 08:40:35;;;;;;;23.33;13.85;;;;;;;1.64;39.11;96352.88;5107836;27;20104;-80
2023/02/11 08:43:00;;;;;;;21.77;13.93;;;;;;;1.24;40.04;96353.78;5109274;27;20040;-79
2023/02/11 08:45:26;;;;;;;25.38;14.70;;;;;;;1.20;39.88;96364.09;5123172;27;20031;-79
2023/02/11 08:47:51;;;;;;;22.95;12.98;;;;;;;1.08;40.79;96362.66;5118741;27;20024;-79
2023/02/11 08:50:17;;;;;;;17.13;10.82;;;;;;;1.06;40.40;96354.19;5105594;27;20508;-79
2023/02/11 08:52:43;;;;;;;16.92;11.27;;;;;;;1.00;40.76;96342.34;5127210;27;20050;-80
2023/02/11 08:55:08;;;;;;;21.48;12.50;;;;;;;0.96;41.46;96360.38;5106077;27;20046;-75
2023/02/11 08:57:34;;;;;;;22.75;14.13;;;;;;;0.70;41.41;96348.94;5127642;27;20027;-78
2023/02/11 08:59:59;;;;;;;39.15;19.42;;;;;;;0.82;41.91;96346.13;5112163;27;20031;-77
2023/02/11 09:02:25;;;;;;;25.48;14.23;;;;;;;0.93;41.82;96350.19;5124386;27;20477;-76
2023/02/11 09:04:50;;;;;;;27.27;14.13;;;;;;;0.98;42.23;96354.34;5116231;27;20031;-78
2023/02/11 09:07:16;;;;;;;23.33;13.80;;;;;;;0.94;42.21;96355.25;5121228;27;20084;-79
2023/02/11 09:09:42;;;;;;;27.70;14.02;;;;;;;0.61;42.35;96346.53;5127182;27;20035;-78
2023/02/11 09:12:07;;;;;;;23.13;13.57;;;;;;;0.83;42.43;96339.28;5130043;27;20348;-81
2023/02/11 09:14:32;;;;;;;19.73;12.10;;;;;;;1.07;42.33;96350.75;5130644;27;20035;-81
2023/02/11 09:16:58;;;;;;;20.52;12.13;;;;;;;0.73;42.51;96318.19;5126220;27;20495;-80
2023/02/11 09:19:23;;;;;;;19.90;12.40;;;;;;;0.92;42.55;96345.94;5122432;27;20069;-81
2023/02/11 09:21:49;;;;;;;18.92;12.52;;;;;;;0.93;41.85;96324.59;5089498;28;20408;-79
2023/02/11 09:24:15;;;;;;;20.02;12.25;;;;;;;1.26;41.39;96346.06;5101826;27;20031;-80
2023/02/11 09:26:40;;;;;;;19.70;13.07;;;;;;;0.97;41.17;96344.13;5109412;28;20034;-82
2023/02/11 09:29:06;;;;;;;21.92;12.82;;;;;;;0.90;41.65;96338.31;5109029;27;20118;-81
2023/02/11 09:31:32;;;;;;;20.85;13.45;;;;;;;0.91;41.83;96336.56;5125170;27;20019;-79
2023/02/11 09:34:00;;;;;;;22.42;13.10;;;;;;;0.91;41.20;96339.13;5102745;27;20074;-79
2023/02/11 09:36:37;;;;;;;20.67;13.55;;;;;;;1.05;41.79;96330.28;5099216;27;20058;-79
2023/02/11 09:39:03;;;;;;;19.77;12.25;;;;;;;1.19;41.78;96322.31;5112090;27;20057;-79
2023/02/11 09:41:47;;;;;;;20.50;11.63;;;;;;;1.04;41.71;96309.84;5115532;27;20449;-79
2023/02/11 09:44:19;;;;;;;18.10;10.48;;;;;;;1.02;42.12;96309.88;5093665;27;20213;-78
2023/02/11 09:46:44;;;;;;;18.23;11.13;;;;;;;0.98;41.88;96318.50;5094177;27;20023;-79
2023/02/11 09:49:18;;;;;;;23.83;14.57;;;;;;;0.93;43.13;96304.97;5115000;27;20045;-75
2023/02/11 09:51:49;;;;;;;25.98;15.75;;;;;;;0.64;43.57;96292.75;5117337;27;20015;-77
2023/02/11 09:54:41;;;;;;;25.20;13.73;;;;;;;0.96;43.08;96301.50;5111628;27;20035;-77
2023/02/11 09:57:07;;;;;;;;;;;;;;;1.27;42.44;96304.22;5122179;27;20066;-78
2023/02/11 09:59:33;;;;;;;19.73;11.18;;;;;;;1.09;43.10;96285.84;5128485;27;19919;-77
2023/02/11 10:02:04;;;;;;;16.95;9.82;;;;;;;1.29;42.51;96285.38;5103031;27;20102;-77
2023/02/11 10:05:03;;;;;;;25.42;13.60;;;;;;;1.47;42.56;96280.72;5132317;27;20110;-77
2023/02/11 10:07:37;;;;;;;19.58;11.38;;;;;;;1.46;42.23;96279.88;5132046;27;20035;-78
2023/02/11 10:10:11;;;;;;;21.70;15.23;;;;;;;1.44;42.37;96250.06;5129512;27;20560;-77
2023/02/11 10:13:07;;;;;;;20.48;13.35;;;;;;;1.81;40.83;96272.19;5119296;27;20074;-85
2023/02/11 10:15:55;;;;;;;23.60;13.15;;;;;;;1.57;41.43;96266.81;5124228;27;20058;-77
2023/02/11 10:18:33;;;;;;;21.65;11.80;;;;;;;1.34;42.53;96263.09;5113283;27;20034;-77
2023/02/11 10:21:05;;;;;;;17.73;10.90;;;;;;;1.53;41.52;96249.81;5111480;28;20080;-78
2023/02/11 10:23:33;;;;;;;16.70;10.27;;;;;;;1.56;42.25;96247.19;5111683;28;20423;-78
2023/02/11 10:25:59;;;;;;;18.35;11.30;;;;;;;1.67;42.07;96228.97;5094965;28;20031;-77
2023/02/11 10:28:29;;;;;;;19.58;11.73;;;;;;;1.79;42.14;96237.22;5094270;28;20577;-77
2023/02/11 10:31:10;;;;;;;16.75;10.02;;;;;;;2.09;41.46;96224.47;5094368;28;20031;-77
2023/02/11 10:33:57;;;;;;;20.63;12.20;;;;;;;2.25;41.86;96212.06;5111790;28;20048;-77
2023/02/11 10:36:28;;;;;;;17.27;11.02;;;;;;;2.31;40.93;96200.78;5112779;28;20031;-77
2023/02/11 10:38:53;;;;;;;22.58;13.57;;;;;;;2.12;40.62;96197.91;5095010;28;20036;-77
2023/02/11 10:41:25;;;;;;;17.85;11.57;;;;;;;2.24;41.45;96189.88;5094261;28;20493;-77
2023/02/11 10:43:51;;;;;;;20.08;10.48;;;;;;;2.23;40.92;96189.03;5077136;28;20032;-77
2023/02/11 10:46:19;;;;;;;22.05;13.15;;;;;;;2.08;41.11;96186.03;5111168;28;20114;-77
2023/02/11 10:48:48;;;;;;;18.60;11.30;;;;;;;1.91;40.96;96173.69;5096515;28;20477;-77
2023/02/11 10:51:19;;;;;;;17.50;10.85;;;;;;;1.85;40.66;96171.31;5112740;28;20496;-77
2023/02/11 10:53:45;;;;;;;;;;;;;;;1.88;41.39;96174.63;5112420;28;20062;-77
2023/02/11 10:56:25;;;;;;;15.52;10.02;;;;;;;2.20;40.30;96153.22;5112586;28;19961;-77
2023/02/11 10:59:04;;;;;;;17.15;9.32;;;;;;;2.29;40.04;96151.28;5112954;28;20120;-77
2023/02/11 11:01:49;;;;;;;17.90;10.68;;;;;;;2.20;40.93;96140.41;5097268;28;20031;-78
2023/02/11 11:04:33;;;;;;;19.83;11.40;;;;;;;2.46;40.72;96151.63;5112904;28;20031;-77
2023/02/11 11:07:21;;;;;;;21.20;13.43;;;;;;;2.53;39.43;96142.84;5114699;28;20027;-77
2023/02/11 11:09:53;;;;;;;16.48;10.68;;;;;;;2.66;39.60;96143.31;5095707;28;20035;-77
2023/02/11 11:12:36;;;;;;;20.50;11.85;;;;;;;2.82;39.24;96146.25;5114670;27;20027;-77
2023/02/11 11:15:17;;;;;;;17.40;10.40;;;;;;;2.68;39.11;96154.38;5101465;28;20062;-77
2023/02/11 11:17:46;;;;;;;15.98;9.43;;;;;;;2.85;37.92;96135.91;5115929;27;20040;-77
2023/02/11 11:20:19;;;;;;;17.92;10.32;;;;;;;2.67;37.97;96104.78;5099925;27;20027;-77
2023/02/11 11:22:45;;;;;;;19.50;10.77;;;;;;;2.75;38.85;96114.78;5107882;27;20491;-77
2023/02/11 11:25:25;;;;;;;16.65;10.10;;;;;;;2.75;38.62;96121.66;5096992;27;20059;-77
2023/02/11 11:27:51;;;;;;;16.90;9.95;;;;;;;2.82;37.96;96125.72;5112444;27;20031;-77
2023/02/11 11:30:17;;;;;;;16.42;10.60;;;;;;;2.56;38.09;96114.53;5113246;27;20524;-77
2023/02/11 11:32:42;;;;;;;16.10;9.73;;;;;;;2.74;37.53;96128.53;5125779;27;20072;-77
2023/02/11 11:35:26;;;;;;;14.63;9.45;;;;;;;2.81;37.72;96132.56;5087565;27;20622;-77
2023/02/11 11:38:02;;;;;;;17.63;10.68;;;;;;;2.80;38.08;96110.38;5113173;27;20533;-77